M I D A S
Marine Information and Data Acquisition System
Tripno 1712 of the Zeeleeuw from 2009-06-18 03:42:29 to 2009-06-18 13:24:37
Back to CruiseResearch ActivitiesStationsMapUnderway DataData graphs

EquipmentUnitsComments
TimeDGPSUTC
LatitudeDGPSDM.mWGS84
LongitudeDGPSDM.mWGS84
SpeedMeteo Stationm/sRelative wind speed
DirectionMeteo StationdegRelative wind direction
TemperatureMeteo Stationdeg CelciusAir temperature
PressureMeteo StationPaAtmospheric pressure
HumidityMeteo Station%Relative humidity
Missing or incorrect values are displayed as -999
Metereological data collected by the RV Zeeleeuw from 2009-06-18 03:35:18 to 2009-06-18 13:55:10
                                                                                    Next 1000 lines
Time Latitude Longitude Speed Direction Temperature Pressure Humidity
2009-06-18 03:35:28 51°13.661 2°55.957 5.5 21 16.1 101640 85
2009-06-18 03:35:33 51°13.662 2°55.955 4.9 79 16.1 101640 85
2009-06-18 03:35:38 51°13.662 2°55.952 3.7 27 16.1 101640 85
2009-06-18 03:35:43 51°13.664 2°55.948 3.8 75 16.1 101640 85
2009-06-18 03:35:49 51°13.665 2°55.942 5.8 27 16.1 101630 85
2009-06-18 03:35:54 51°13.666 2°55.937 3.4 79 16.1 101630 85
2009-06-18 03:36:00 51°13.668 2°55.93 4 26 16.1 101630 85
2009-06-18 03:36:06 51°13.67 2°55.923 4.7 80 16.1 101630 85
2009-06-18 03:36:12 51°13.672 2°55.915 4.7 22 16.2 101630 85
2009-06-18 03:36:17 51°13.674 2°55.908 2.9 81 16.2 101630 85
2009-06-18 03:36:21 51°13.676 2°55.903 4.6 23 16.2 101630 86
2009-06-18 03:36:27 51°13.678 2°55.895 6.9 80 16.2 101630 86
2009-06-18 03:36:32 51°13.679 2°55.888 5.3 24 16.2 101640 85
2009-06-18 03:36:37 51°13.68 2°55.881 4.3 76 16.2 101640 85
2009-06-18 03:36:41 51°13.681 2°55.876 6 26 16.2 101640 85
2009-06-18 03:36:47 51°13.682 2°55.868 5.7 77 16.2 101640 85
2009-06-18 03:36:52 51°13.684 2°55.861 7.1 22 16.3 101640 85
2009-06-18 03:36:57 51°13.686 2°55.854 8.1 77 16.3 101640 85
2009-06-18 03:37:01 51°13.687 2°55.848 5.2 19 16.3 101640 85
2009-06-18 03:37:07 51°13.688 2°55.84 5.2 74 16.3 101640 85
2009-06-18 03:37:12 51°13.69 2°55.833 5.3 22 16.3 101640 85
2009-06-18 03:37:17 51°13.691 2°55.826 4.3 82 16.3 101640 85
2009-06-18 03:37:21 51°13.692 2°55.821 5.6 26 16.3 101640 83
2009-06-18 03:37:27 51°13.694 2°55.812 6.8 83 16.3 101640 83
2009-06-18 03:37:32 51°13.695 2°55.806 6.4 26 16.3 101640 84
2009-06-18 03:37:37 51°13.696 2°55.799 4.3 82 16.3 101640 84
2009-06-18 03:37:41 51°13.696 2°55.794 7.7 28 16.3 101640 84
2009-06-18 03:37:47 51°13.698 2°55.787 7.1 76 16.3 101640 84
2009-06-18 03:37:52 51°13.699 2°55.782 6.1 24 16.3 101640 84
2009-06-18 03:37:57 51°13.7 2°55.777 4.7 76 16.3 101640 84
2009-06-18 03:38:01 51°13.7 2°55.775 3.2 28 16.3 101640 84
2009-06-18 03:38:07 51°13.701 2°55.773 3.2 80 16.3 101640 84
2009-06-18 03:38:11 51°13.701 2°55.773 2.8 25 16.3 101630 83
2009-06-18 03:38:16 51°13.702 2°55.774 3.4 77 16.3 101630 83
2009-06-18 03:38:21 51°13.702 2°55.775 5 22 16.3 101640 83
2009-06-18 03:38:26 51°13.703 2°55.776 4.9 77 16.3 101640 83
2009-06-18 03:38:31 51°13.703 2°55.776 3.4 21 16.3 101640 83
2009-06-18 03:38:36 51°13.704 2°55.776 4.4 80 16.3 101640 83
2009-06-18 03:38:41 51°13.704 2°55.775 4.1 25 16.3 101640 83
2009-06-18 03:38:45 51°13.704 2°55.774 4.6 81 16.3 101640 83
2009-06-18 03:38:50 51°13.703 2°55.772 5.7 25 16.3 101640 83
2009-06-18 03:38:55 51°13.703 2°55.77 3.8 81 16.3 101640 83
2009-06-18 03:39:00 51°13.702 2°55.768 7.1 27 16.3 101640 83
2009-06-18 03:39:05 51°13.701 2°55.766 4.7 80 16.3 101640 83
2009-06-18 03:39:09 51°13.701 2°55.764 4.3 26 16.3 101640 84
2009-06-18 03:39:14 51°13.7 2°55.762 3.8 78 16.3 101640 84
2009-06-18 03:39:20 51°13.7 2°55.76 4.1 265 16.3 101640 83
2009-06-18 03:39:25 51°13.7 2°55.76 3.6 286 16.3 101640 83
2009-06-18 03:39:31 51°13.701 2°55.76 4.4 257 16.2 101640 83
2009-06-18 03:39:37 51°13.701 2°55.761 5.2 281 16.2 101640 83
2009-06-18 03:39:41 51°13.702 2°55.762 4.4 268 16.2 101640 83
2009-06-18 03:39:46 51°13.703 2°55.763 4.4 286 16.2 101640 83
2009-06-18 03:39:51 51°13.704 2°55.764 6.1 251 16.2 101640 83
2009-06-18 03:39:56 51°13.705 2°55.765 3.9 281 16.2 101640 83
2009-06-18 03:40:01 51°13.705 2°55.765 4.4 266 16.2 101630 82
2009-06-18 03:40:05 51°13.705 2°55.766 4.6 278 16.2 101630 82
2009-06-18 03:40:10 51°13.705 2°55.765 5.5 260 16.2 101640 83
2009-06-18 03:40:16 51°13.703 2°55.765 3.8 284 16.2 101640 83
2009-06-18 03:40:20 51°13.702 2°55.764 6.2 253 16.2 101640 83
2009-06-18 03:40:25 51°13.7 2°55.763 4.2 280 16.2 101640 83
2009-06-18 03:40:30 51°13.699 2°55.762 3.4 261 16.2 101650 83
2009-06-18 03:40:35 51°13.697 2°55.762 3 285 16.2 101650 83
2009-06-18 03:40:40 51°13.696 2°55.761 3 269 16.2 101640 83
2009-06-18 03:40:46 51°13.696 2°55.761 2.8 284 16.2 101640 83
2009-06-18 03:40:52 51°13.697 2°55.761 5.3 252 16.2 101640 84
2009-06-18 03:40:57 51°13.699 2°55.762 3.4 280 16.2 101640 84
2009-06-18 03:41:01 51°13.701 2°55.762 4.4 320 16.2 101640 83
2009-06-18 03:41:07 51°13.704 2°55.762 6.3 280 16.2 101640 83
2009-06-18 03:41:12 51°13.707 2°55.761 3.7 20 16.2 101640 83
2009-06-18 03:41:16 51°13.71 2°55.76 6 283 16.2 101640 83
2009-06-18 03:41:21 51°13.713 2°55.757 5.8 315 16.2 101640 84
2009-06-18 03:41:26 51°13.717 2°55.754 6.9 280 16.2 101640 84
2009-06-18 03:41:31 51°13.722 2°55.749 7.2 26 16.2 101640 83
2009-06-18 03:41:36 51°13.727 2°55.744 6.5 280 16.2 101640 83
2009-06-18 03:41:41 51°13.733 2°55.737 8.3 315 16.2 101640 83
2009-06-18 03:41:45 51°13.737 2°55.731 11.3 280 16.2 101640 83
2009-06-18 03:41:50 51°13.744 2°55.724 9.3 23 16.2 101630 84
2009-06-18 03:41:55 51°13.752 2°55.716 7.3 278 16.2 101630 84
2009-06-18 03:42:00 51°13.759 2°55.707 5.4 329 16.2 101630 83
2009-06-18 03:42:05 51°13.767 2°55.698 7.6 280 16.2 101630 83
2009-06-18 03:42:09 51°13.774 2°55.691 7.4 316 16.2 101630 84
2009-06-18 03:42:15 51°13.784 2°55.679 7.8 284 16.2 101630 84
2009-06-18 03:42:19 51°13.791 2°55.672 8.7 23 16.2 101630 84
2009-06-18 03:42:24 51°13.8 2°55.662 6.6 286 16.2 101630 84
2009-06-18 03:42:29 51°13.81 2°55.653 6.5 28 16.2 101630 84
2009-06-18 03:42:34 51°13.819 2°55.644 6.8 279 16.2 101630 84
2009-06-18 03:42:39 51°13.83 2°55.635 9.3 318 16.1 101630 83
2009-06-18 03:42:44 51°13.84 2°55.626 6.7 279 16.1 101630 83
2009-06-18 03:42:48 51°13.848 2°55.619 7.2 27 16.2 101630 83
2009-06-18 03:42:53 51°13.858 2°55.611 6.9 280 16.2 101630 83
2009-06-18 03:42:58 51°13.869 2°55.603 7 28 16.1 101640 83
2009-06-18 03:43:03 51°13.88 2°55.594 8.1 284 16.1 101640 83
2009-06-18 03:43:08 51°13.89 2°55.586 5.4 317 16.1 101630 83
2009-06-18 03:43:13 51°13.901 2°55.577 5.2 283 16.1 101630 83
2009-06-18 03:43:18 51°13.913 2°55.568 5.7 328 16.1 101630 83
2009-06-18 03:43:23 51°13.924 2°55.56 8.1 281 16.1 101630 83
2009-06-18 03:43:28 51°13.935 2°55.552 11 316 16.1 101640 83
2009-06-18 03:43:33 51°13.946 2°55.543 6.9 280 16.1 101640 83
2009-06-18 03:43:38 51°13.957 2°55.534 10 25 16.1 101640 84
2009-06-18 03:43:43 51°13.968 2°55.525 8.2 280 16.1 101640 84
2009-06-18 03:43:48 51°13.98 2°55.517 7.5 28 16.1 101630 83
2009-06-18 03:43:53 51°13.991 2°55.508 7.7 282 16.1 101630 83
2009-06-18 03:43:57 51°13 2°55.501 6.6 323 16.1 101630 84
2009-06-18 03:44:03 51°14.014 2°55.492 6 281 16.1 101630 84
2009-06-18 03:44:08 51°14.025 2°55.483 6.7 321 16.1 101630 84
2009-06-18 03:44:13 51°14.037 2°55.475 6.5 283 16.1 101630 84
2009-06-18 03:44:18 51°14.049 2°55.466 6.6 23 16.1 101630 84
2009-06-18 03:44:23 51°14.06 2°55.457 6.2 285 16.1 101630 84
2009-06-18 03:44:28 51°14.071 2°55.448 6.9 27 16.1 101630 84
2009-06-18 03:44:33 51°14.083 2°55.44 5.9 281 16.1 101630 84
2009-06-18 03:44:38 51°14.094 2°55.43 8.7 321 16.1 101630 84
2009-06-18 03:44:43 51°14.106 2°55.422 11.9 286 16.1 101630 84
2009-06-18 03:44:48 51°14.118 2°55.413 9.5 316 16.1 101640 83
2009-06-18 03:44:53 51°14.13 2°55.405 11.7 281 16.1 101640 83
2009-06-18 03:44:58 51°14.141 2°55.395 10.2 29 16.1 101630 84
2009-06-18 03:45:03 51°14.153 2°55.386 10.1 277 16.1 101630 84
2009-06-18 03:45:08 51°14.163 2°55.375 13.2 23 16.1 101620 83
2009-06-18 03:45:13 51°14.174 2°55.364 9.8 283 16.1 101620 83
2009-06-18 03:45:18 51°14.185 2°55.352 14.3 23 16.1 101640 84
2009-06-18 03:45:23 51°14.195 2°55.34 12.2 286 16.1 101640 84
2009-06-18 03:45:28 51°14.206 2°55.327 11.9 25 16 101620 84
2009-06-18 03:45:33 51°14.216 2°55.314 13.5 286 16 101620 84
2009-06-18 03:45:38 51°14.226 2°55.301 11.9 316 16 101620 84
2009-06-18 03:45:43 51°14.236 2°55.287 11.6 277 16 101620 84
2009-06-18 03:45:48 51°14.247 2°55.273 11.3 320 16 101620 84
2009-06-18 03:45:53 51°14.256 2°55.258 12 281 16 101620 84
2009-06-18 03:45:58 51°14.266 2°55.243 11.4 318 16 101620 84
2009-06-18 03:46:03 51°14.276 2°55.227 11.3 280 16 101620 84
2009-06-18 03:46:08 51°14.286 2°55.211 13.5 319 16 101620 84
2009-06-18 03:46:13 51°14.295 2°55.194 11.5 277 16 101620 84
2009-06-18 03:46:18 51°14.305 2°55.177 11.7 317 16 101620 84
2009-06-18 03:46:23 51°14.315 2°55.161 12.7 278 16 101620 84
2009-06-18 03:46:28 51°14.325 2°55.143 12.5 319 16 101620 85
2009-06-18 03:46:33 51°14.334 2°55.125 13.5 277 16 101620 85
2009-06-18 03:46:38 51°14.344 2°55.106 13.6 319 16 101620 85
2009-06-18 03:46:43 51°14.353 2°55.088 14.4 283 16 101620 85
2009-06-18 03:46:48 51°14.362 2°55.069 15.6 318 16.1 101620 84
2009-06-18 03:46:53 51°14.372 2°55.051 14.4 285 16.1 101620 84
2009-06-18 03:46:58 51°14.382 2°55.033 11.5 319 16.1 101610 84
2009-06-18 03:47:03 51°14.392 2°55.016 13.9 281 16.1 101610 84
2009-06-18 03:47:08 51°14.402 2°54.998 12.6 319 16.1 101600 85
2009-06-18 03:47:13 51°14.412 2°54.98 16.8 279 16.1 101600 85
2009-06-18 03:47:17 51°14.42 2°54.965 13 318 16.1 101600 85
2009-06-18 03:47:23 51°14.432 2°54.942 14.4 282 16.1 101600 85
2009-06-18 03:47:28 51°14.441 2°54.923 15.3 318 16.1 101600 85
2009-06-18 03:47:33 51°14.451 2°54.904 13.8 279 16.1 101600 85
2009-06-18 03:47:37 51°14.459 2°54.889 15.1 320 16.1 101600 85
2009-06-18 03:47:43 51°14.47 2°54.865 16.5 284 16.1 101600 85
2009-06-18 03:47:48 51°14.479 2°54.845 16.4 321 16 101600 85
2009-06-18 03:47:53 51°14.488 2°54.825 13.3 280 16 101600 85
2009-06-18 03:47:58 51°14.496 2°54.804 13.1 319 16 101600 85
2009-06-18 03:48:03 51°14.505 2°54.783 12.4 277 16 101600 85
2009-06-18 03:48:08 51°14.512 2°54.761 12.8 320 16 101600 85
2009-06-18 03:48:13 51°14.52 2°54.739 13.6 278 16 101600 85
2009-06-18 03:48:18 51°14.526 2°54.716 14.8 321 16 101600 85
2009-06-18 03:48:23 51°14.533 2°54.694 13.5 286 16 101600 85
2009-06-18 03:48:28 51°14.539 2°54.671 15.3 323 16 101600 85
2009-06-18 03:48:33 51°14.546 2°54.648 15 282 16 101600 85
2009-06-18 03:48:38 51°14.552 2°54.625 15.4 323 16 101600 85
2009-06-18 03:48:43 51°14.557 2°54.601 12.6 283 16 101600 85
2009-06-18 03:48:48 51°14.563 2°54.578 13 325 16 101580 85
2009-06-18 03:48:53 51°14.567 2°54.554 13.5 284 16 101580 85
2009-06-18 03:48:58 51°14.572 2°54.529 15.8 325 16 101580 85
2009-06-18 03:49:03 51°14.576 2°54.504 16.8 281 16 101580 85
2009-06-18 03:49:08 51°14.579 2°54.48 13.2 328 16 101590 85
2009-06-18 03:49:13 51°14.583 2°54.455 15.3 283 16 101590 85
2009-06-18 03:49:18 51°14.586 2°54.43 15.7 327 16 101590 86
2009-06-18 03:49:23 51°14.589 2°54.405 13.2 281 16 101590 86
2009-06-18 03:49:28 51°14.591 2°54.38 15.5 329 15.9 101590 85
2009-06-18 03:49:33 51°14.593 2°54.354 15 286 15.9 101590 85
2009-06-18 03:49:38 51°14.595 2°54.328 12.8 328 15.9 101600 85
2009-06-18 03:49:43 51°14.596 2°54.303 14.9 284 15.9 101600 85
2009-06-18 03:49:48 51°14.598 2°54.277 13.1 326 15.9 101600 85
2009-06-18 03:49:53 51°14.601 2°54.252 13.1 279 15.9 101600 85
2009-06-18 03:49:58 51°14.603 2°54.227 14 329 15.9 101600 85
2009-06-18 03:50:03 51°14.606 2°54.201 14.9 282 15.9 101600 85
2009-06-18 03:50:08 51°14.608 2°54.176 15.5 327 15.9 101610 85
2009-06-18 03:50:13 51°14.611 2°54.15 15.2 280 15.9 101610 85
2009-06-18 03:50:18 51°14.613 2°54.125 13.9 328 15.9 101590 85
2009-06-18 03:50:23 51°14.616 2°54.099 15.6 282 15.9 101590 85
2009-06-18 03:50:28 51°14.619 2°54.075 15.9 326 15.9 101590 85
2009-06-18 03:50:33 51°14.622 2°54.05 15.6 280 15.9 101590 85
2009-06-18 03:50:38 51°14.625 2°54.024 14.2 329 15.9 101590 85
2009-06-18 03:50:43 51°14.628 2°53.999 16.3 277 15.9 101590 85
2009-06-18 03:50:48 51°14.631 2°53.975 15.5 326 15.9 101600 85
2009-06-18 03:50:53 51°14.634 2°53.949 13.2 283 15.9 101600 85
2009-06-18 03:50:57 51°14.637 2°53.929 16.2 326 15.9 101580 85
2009-06-18 03:51:03 51°14.641 2°53.899 12.9 280 15.9 101580 85
2009-06-18 03:51:08 51°14.644 2°53.874 17 327 15.9 101620 85
2009-06-18 03:51:13 51°14.647 2°53.849 15.1 327 15.9 101620 85
2009-06-18 03:51:18 51°14.65 2°53.824 15.7 326 15.9 101590 85
2009-06-18 03:51:23 51°14.653 2°53.799 14.8 327 15.9 101590 85
2009-06-18 03:51:28 51°14.656 2°53.775 15.8 326 15.9 101600 85
2009-06-18 03:51:33 51°14.659 2°53.75 15.2 327 15.9 101600 85
2009-06-18 03:51:38 51°14.662 2°53.725 12.3 327 15.9 101590 86
2009-06-18 03:51:43 51°14.665 2°53.7 12.4 328 15.9 101590 86
2009-06-18 03:51:48 51°14.669 2°53.675 13.3 327 15.9 101600 85
2009-06-18 03:51:53 51°14.672 2°53.65 14.1 327 15.9 101600 85
2009-06-18 03:51:58 51°14.675 2°53.626 14.5 326 15.9 101600 86
2009-06-18 03:52:03 51°14.678 2°53.601 16.1 327 15.9 101600 86
2009-06-18 03:52:08 51°14.682 2°53.576 15.1 327 15.9 101610 86
2009-06-18 03:52:13 51°14.685 2°53.551 15.9 303 15.9 101610 86
2009-06-18 03:52:18 51°14.688 2°53.526 14.7 328 15.9 101600 86
2009-06-18 03:52:23 51°14.691 2°53.502 13.4 300 15.9 101600 86
2009-06-18 03:52:28 51°14.695 2°53.477 16.5 327 15.8 101590 85
2009-06-18 03:52:33 51°14.698 2°53.452 12.6 328 15.8 101590 85
2009-06-18 03:52:38 51°14.701 2°53.427 14.8 326 15.8 101590 85
2009-06-18 03:52:43 51°14.705 2°53.402 12.5 328 15.8 101590 85
2009-06-18 03:52:48 51°14.708 2°53.378 14.9 327 15.9 101600 85
2009-06-18 03:52:53 51°14.712 2°53.353 14.9 327 15.9 101600 85
2009-06-18 03:52:58 51°14.715 2°53.329 14.7 325 15.8 101600 85
2009-06-18 03:53:03 51°14.719 2°53.304 15.2 328 15.8 101600 85
2009-06-18 03:53:08 51°14.722 2°53.28 13 325 15.8 101610 85
2009-06-18 03:53:13 51°14.726 2°53.255 13.1 326 15.8 101610 85
2009-06-18 03:53:18 51°14.729 2°53.23 15.7 328 15.8 101600 85
2009-06-18 03:53:23 51°14.733 2°53.205 14.9 327 15.8 101600 85
2009-06-18 03:53:28 51°14.736 2°53.181 16.2 327 15.9 101610 85
2009-06-18 03:53:33 51°14.74 2°53.157 16.3 326 15.9 101610 85
2009-06-18 03:53:38 51°14.743 2°53.132 13.1 327 15.9 101600 85
2009-06-18 03:53:43 51°14.747 2°53.106 16.1 327 15.9 101600 85
2009-06-18 03:53:48 51°14.75 2°53.081 15.8 328 15.8 101600 85
2009-06-18 03:53:53 51°14.753 2°53.057 14.8 326 15.8 101600 85
2009-06-18 03:53:58 51°14.757 2°53.032 12.7 328 15.8 101610 85
2009-06-18 03:54:03 51°14.76 2°53.007 15.8 328 15.8 101610 85
2009-06-18 03:54:08 51°14.763 2°52.983 13.7 328 15.8 101610 85
2009-06-18 03:54:13 51°14.767 2°52.959 12.8 329 15.8 101610 85
2009-06-18 03:54:18 51°14.77 2°52.934 15.9 327 15.8 101620 85
2009-06-18 03:54:23 51°14.773 2°52.909 16.6 326 15.8 101620 85
2009-06-18 03:54:28 51°14.777 2°52.884 16.7 327 15.8 101620 85
2009-06-18 03:54:33 51°14.78 2°52.86 13.6 328 15.8 101620 85
2009-06-18 03:54:37 51°14.783 2°52.84 15.9 326 15.8 101610 85
2009-06-18 03:54:43 51°14.787 2°52.811 15.4 327 15.8 101610 85
2009-06-18 03:54:48 51°14.791 2°52.786 13.4 326 15.8 101600 86
2009-06-18 03:54:53 51°14.794 2°52.762 15.6 304 15.8 101600 86
2009-06-18 03:54:58 51°14.797 2°52.737 15.3 324 15.8 101600 85
2009-06-18 03:55:03 51°14.801 2°52.712 14.7 326 15.8 101600 85
2009-06-18 03:55:08 51°14.804 2°52.688 14.2 326 15.8 101600 85
2009-06-18 03:55:13 51°14.808 2°52.664 16.2 326 15.8 101600 85
2009-06-18 03:55:17 51°14.811 2°52.644 14.7 326 15.8 101610 85
2009-06-18 03:55:23 51°14.814 2°52.614 14 302 15.8 101610 85
2009-06-18 03:55:28 51°14.817 2°52.59 13.1 327 15.8 101600 85
2009-06-18 03:55:33 51°14.82 2°52.565 15.4 328 15.8 101600 85
2009-06-18 03:55:38 51°14.823 2°52.54 13.6 327 15.8 101600 85
2009-06-18 03:55:43 51°14.826 2°52.515 16.6 327 15.8 101600 85
2009-06-18 03:55:48 51°14.829 2°52.49 15.8 328 15.8 101600 85
2009-06-18 03:55:53 51°14.833 2°52.466 15 327 15.8 101600 85
2009-06-18 03:55:58 51°14.836 2°52.441 13.1 326 15.8 101600 85
2009-06-18 03:56:03 51°14.84 2°52.416 13 304 15.8 101600 85
2009-06-18 03:56:08 51°14.844 2°52.392 16 325 15.8 101610 85
2009-06-18 03:56:13 51°14.848 2°52.368 14.9 325 15.8 101610 85
2009-06-18 03:56:17 51°14.851 2°52.348 15.8 325 15.8 101600 85
2009-06-18 03:56:23 51°14.855 2°52.319 12.8 327 15.8 101600 85
2009-06-18 03:56:28 51°14.858 2°52.294 13.3 326 15.8 101610 86
2009-06-18 03:56:33 51°14.861 2°52.27 14.1 327 15.8 101610 86
2009-06-18 03:56:37 51°14.864 2°52.25 15.7 327 15.8 101610 86
2009-06-18 03:56:43 51°14.868 2°52.221 15.3 325 15.8 101610 86
2009-06-18 03:56:48 51°14.872 2°52.196 12.8 326 15.8 101600 85
2009-06-18 03:56:53 51°14.877 2°52.172 16.2 326 15.8 101600 85
2009-06-18 03:56:58 51°14.88 2°52.147 15.9 327 15.8 101610 86
2009-06-18 03:57:03 51°14.884 2°52.122 13.5 328 15.8 101610 86
2009-06-18 03:57:08 51°14.888 2°52.097 14.8 329 15.8 101600 86
2009-06-18 03:57:13 51°14.891 2°52.072 13.5 301 15.8 101600 86
2009-06-18 03:57:18 51°14.893 2°52.047 13.3 328 15.8 101610 85
2009-06-18 03:57:23 51°14.896 2°52.023 17.5 328 15.8 101610 85
2009-06-18 03:57:28 51°14.9 2°51.998 15.8 327 15.8 101600 86
2009-06-18 03:57:33 51°14.903 2°51.974 15.8 326 15.8 101600 86
2009-06-18 03:57:38 51°14.907 2°51.95 15.1 328 15.7 101610 85
2009-06-18 03:57:43 51°14.912 2°51.926 12.4 328 15.7 101610 85
2009-06-18 03:57:48 51°14.915 2°51.901 12.5 327 15.7 101610 85
2009-06-18 03:57:53 51°14.919 2°51.877 12 328 15.7 101610 85
2009-06-18 03:57:58 51°14.922 2°51.851 14.3 327 15.7 101590 85
2009-06-18 03:58:03 51°14.926 2°51.826 14 329 15.7 101590 85
2009-06-18 03:58:08 51°14.93 2°51.801 12.6 327 15.7 101610 85
2009-06-18 03:58:13 51°14.933 2°51.777 15.1 329 15.7 101610 85
2009-06-18 03:58:18 51°14.936 2°51.753 15.8 328 15.7 101620 85
2009-06-18 03:58:23 51°14.939 2°51.728 15.5 328 15.7 101620 85
2009-06-18 03:58:28 51°14.942 2°51.704 16.6 329 15.8 101620 85
2009-06-18 03:58:33 51°14.945 2°51.68 12.9 330 15.8 101620 85
2009-06-18 03:58:38 51°14.949 2°51.656 15.6 330 15.7 101620 86
2009-06-18 03:58:43 51°14.952 2°51.631 14 330 15.7 101620 86
2009-06-18 03:58:48 51°14.955 2°51.607 12.9 329 15.7 101610 85
2009-06-18 03:58:53 51°14.958 2°51.582 15.4 329 15.7 101610 85
2009-06-18 03:58:58 51°14.961 2°51.557 14.9 329 15.7 101620 85
2009-06-18 03:59:03 51°14.964 2°51.532 12 329 15.7 101620 85
2009-06-18 03:59:08 51°14.968 2°51.507 15.2 329 15.7 101610 85
2009-06-18 03:59:13 51°14.971 2°51.482 12.5 330 15.7 101610 85
2009-06-18 03:59:18 51°14.974 2°51.458 13.1 328 15.7 101630 85
2009-06-18 03:59:23 51°14.977 2°51.432 13.4 329 15.7 101630 85
2009-06-18 03:59:28 51°14.98 2°51.408 15.6 328 15.7 101620 85
2009-06-18 03:59:33 51°14.983 2°51.383 15.9 330 15.7 101620 85
2009-06-18 03:59:38 51°14.987 2°51.358 12.6 329 15.7 101620 85
2009-06-18 03:59:43 51°14.99 2°51.333 14.4 329 15.7 101620 85
2009-06-18 03:59:48 51°14.994 2°51.308 16.5 327 15.7 101630 85
2009-06-18 03:59:53 51°14.997 2°51.283 13.3 328 15.7 101630 85
2009-06-18 03:59:58 51°15 2°51.258 15 330 15.7 101630 85
2009-06-18 04:00:03 51°15.003 2°51.234 14.5 327 15.7 101630 85
2009-06-18 04:00:08 51°15.007 2°51.209 13.3 329 15.7 101630 85
2009-06-18 04:00:13 51°15.01 2°51.184 15.9 329 15.7 101630 85
2009-06-18 04:00:18 51°15.014 2°51.159 15.7 327 15.7 101620 85
2009-06-18 04:00:23 51°15.017 2°51.134 15.9 328 15.7 101620 85
2009-06-18 04:00:28 51°15.02 2°51.109 12.8 328 15.7 101620 85
2009-06-18 04:00:33 51°15.023 2°51.084 13.4 329 15.7 101620 85
2009-06-18 04:00:38 51°15.026 2°51.059 13.4 330 15.7 101610 85
2009-06-18 04:00:43 51°15.029 2°51.033 13 329 15.7 101610 85
2009-06-18 04:00:48 51°15.032 2°51.008 13 329 15.6 101620 85
2009-06-18 04:00:53 51°15.035 2°50.983 12.9 328 15.6 101620 85
2009-06-18 04:00:58 51°15.039 2°50.958 12.9 329 15.7 101610 85
2009-06-18 04:01:04 51°15.042 2°50.928 12.9 329 15.7 101610 85
2009-06-18 04:01:08 51°15.045 2°50.908 14.2 330 15.7 101610 85
2009-06-18 04:01:13 51°15.048 2°50.882 13.3 334 15.7 101610 85
2009-06-18 04:01:18 51°15.05 2°50.856 13.9 332 15.7 101610 85
2009-06-18 04:01:23 51°15.053 2°50.831 15.3 333 15.7 101610 85
2009-06-18 04:01:28 51°15.056 2°50.806 15.9 333 15.7 101610 85
2009-06-18 04:01:33 51°15.059 2°50.781 13.3 332 15.7 101610 85
2009-06-18 04:01:38 51°15.062 2°50.756 15.5 332 15.7 101630 85
2009-06-18 04:01:44 51°15.066 2°50.726 15.7 329 15.7 101630 85
2009-06-18 04:01:48 51°15.069 2°50.706 13.2 329 15.6 101610 84
2009-06-18 04:01:53 51°15.072 2°50.681 12.5 329 15.6 101610 84
2009-06-18 04:01:58 51°15.076 2°50.657 15 329 15.6 101610 85
2009-06-18 04:02:03 51°15.08 2°50.632 16.1 328 15.6 101610 85
2009-06-18 04:02:08 51°15.085 2°50.608 16.3 328 15.7 101620 85
2009-06-18 04:02:13 51°15.089 2°50.583 13 327 15.7 101620 85
2009-06-18 04:02:18 51°15.093 2°50.559 13 327 15.7 101610 85
2009-06-18 04:02:23 51°15.098 2°50.535 14.8 327 15.7 101610 85
2009-06-18 04:02:28 51°15.103 2°50.51 15.3 327 15.7 101600 85
2009-06-18 04:02:33 51°15.107 2°50.486 13.5 326 15.7 101600 85
2009-06-18 04:02:38 51°15.112 2°50.462 12.7 326 15.6 101610 85
2009-06-18 04:02:43 51°15.117 2°50.438 15.1 327 15.6 101610 85
2009-06-18 04:02:48 51°15.122 2°50.413 13.4 327 15.6 101610 85
2009-06-18 04:02:53 51°15.127 2°50.389 13.2 327 15.6 101610 85
2009-06-18 04:02:58 51°15.132 2°50.364 14.5 328 15.6 101610 84
2009-06-18 04:03:03 51°15.137 2°50.34 13.1 328 15.6 101610 84
2009-06-18 04:03:08 51°15.142 2°50.316 15.3 328 15.6 101610 84
2009-06-18 04:03:13 51°15.147 2°50.292 15.4 327 15.6 101610 84
2009-06-18 04:03:18 51°15.151 2°50.268 14 328 15.6 101610 85
2009-06-18 04:03:23 51°15.156 2°50.244 13.7 327 15.6 101610 85
2009-06-18 04:03:28 51°15.161 2°50.219 13 326 15.6 101610 84
2009-06-18 04:03:33 51°15.165 2°50.195 14.1 282 15.6 101610 84
2009-06-18 04:03:38 51°15.17 2°50.17 14 329 15.6 101620 85
2009-06-18 04:03:43 51°15.175 2°50.146 13.2 328 15.6 101620 85
2009-06-18 04:03:48 51°15.18 2°50.122 16.8 328 15.6 101610 84
2009-06-18 04:03:53 51°15.185 2°50.097 13.3 328 15.6 101610 84
2009-06-18 04:03:58 51°15.19 2°50.074 15.6 327 15.6 101600 84
2009-06-18 04:04:04 51°15.196 2°50.045 12.4 327 15.6 101600 84
2009-06-18 04:04:08 51°15.2 2°50.026 15.2 327 15.6 101620 84
2009-06-18 04:04:13 51°15.205 2°50.002 14 328 15.6 101620 84
2009-06-18 04:04:18 51°15.21 2°49.977 16.2 329 15.6 101610 84
2009-06-18 04:04:23 51°15.214 2°49.953 13.4 301 15.6 101610 84
2009-06-18 04:04:28 51°15.219 2°49.929 13 327 15.6 101620 84
2009-06-18 04:04:33 51°15.225 2°49.905 15.8 328 15.6 101620 84
2009-06-18 04:04:38 51°15.23 2°49.881 12.5 327 15.6 101610 84
2009-06-18 04:04:43 51°15.234 2°49.857 14.7 329 15.6 101610 84
2009-06-18 04:04:48 51°15.24 2°49.833 12.4 328 15.6 101620 84
2009-06-18 04:04:53 51°15.245 2°49.809 14.8 328 15.6 101620 84
2009-06-18 04:04:58 51°15.249 2°49.785 15.3 327 15.6 101600 83
2009-06-18 04:05:03 51°15.254 2°49.761 12.3 303 15.6 101600 83
2009-06-18 04:05:08 51°15.259 2°49.736 14.8 327 15.6 101620 84
2009-06-18 04:05:13 51°15.264 2°49.712 14.9 328 15.6 101620 84
2009-06-18 04:05:18 51°15.268 2°49.687 13.2 329 15.6 101610 84
2009-06-18 04:05:23 51°15.273 2°49.663 11.9 329 15.6 101610 84
2009-06-18 04:05:28 51°15.278 2°49.639 11.5 328 15.6 101620 84
2009-06-18 04:05:33 51°15.282 2°49.614 11.8 331 15.6 101620 84
2009-06-18 04:05:38 51°15.287 2°49.589 12.7 331 15.6 101610 84
2009-06-18 04:05:43 51°15.291 2°49.564 15.2 329 15.6 101610 84
2009-06-18 04:05:48 51°15.296 2°49.54 12.5 330 15.6 101630 84
2009-06-18 04:05:53 51°15.3 2°49.515 12.7 328 15.6 101630 84
2009-06-18 04:05:58 51°15.305 2°49.491 12.3 331 15.7 101620 85
2009-06-18 04:06:03 51°15.31 2°49.466 14.4 331 15.7 101620 85
2009-06-18 04:06:08 51°15.315 2°49.442 12.2 328 15.6 101630 84
2009-06-18 04:06:13 51°15.319 2°49.418 14.4 329 15.6 101630 84
2009-06-18 04:06:18 51°15.324 2°49.393 12 328 15.6 101620 84
2009-06-18 04:06:23 51°15.329 2°49.369 12.4 327 15.6 101620 84
2009-06-18 04:06:28 51°15.333 2°49.345 14.2 330 15.6 101630 84
2009-06-18 04:06:33 51°15.338 2°49.321 13.3 330 15.6 101630 84
2009-06-18 04:06:38 51°15.343 2°49.297 14.5 329 15.6 101620 84
2009-06-18 04:06:43 51°15.348 2°49.272 14.4 327 15.6 101620 84
2009-06-18 04:06:48 51°15.352 2°49.248 12.4 330 15.6 101630 84
2009-06-18 04:06:53 51°15.357 2°49.223 14.2 329 15.6 101630 84
2009-06-18 04:06:58 51°15.361 2°49.199 16.7 329 15.6 101610 84
2009-06-18 04:07:03 51°15.366 2°49.175 17.2 330 15.6 101610 84
2009-06-18 04:07:08 51°15.371 2°49.151 13.5 330 15.6 101610 85
2009-06-18 04:07:13 51°15.375 2°49.127 12.9 331 15.6 101610 85
2009-06-18 04:07:18 51°15.38 2°49.103 12.8 330 15.6 101610 84
2009-06-18 04:07:23 51°15.384 2°49.078 12.2 329 15.6 101610 84
2009-06-18 04:07:28 51°15.389 2°49.054 11.8 328 15.6 101620 84
2009-06-18 04:07:33 51°15.393 2°49.03 13.8 330 15.6 101620 84
2009-06-18 04:07:38 51°15.398 2°49.006 12.2 330 15.5 101600 83
2009-06-18 04:07:43 51°15.402 2°48.982 11.6 329 15.5 101600 83
2009-06-18 04:07:48 51°15.406 2°48.958 14.1 330 15.5 101620 83
2009-06-18 04:07:53 51°15.411 2°48.934 13.7 331 15.5 101620 83
2009-06-18 04:07:58 51°15.416 2°48.91 11.5 328 15.5 101620 83
2009-06-18 04:08:03 51°15.42 2°48.886 12.7 301 15.5 101620 83
2009-06-18 04:08:08 51°15.424 2°48.861 14.8 329 15.5 101620 83
2009-06-18 04:08:13 51°15.428 2°48.837 13.1 331 15.5 101620 83
2009-06-18 04:08:18 51°15.433 2°48.813 11.6 329 15.6 101620 84
2009-06-18 04:08:23 51°15.437 2°48.788 14 329 15.6 101620 84
2009-06-18 04:08:28 51°15.442 2°48.765 11.5 328 15.6 101630 84
2009-06-18 04:08:33 51°15.447 2°48.741 13.9 282 15.6 101630 84
2009-06-18 04:08:38 51°15.452 2°48.717 11.4 330 15.7 101610 84
2009-06-18 04:08:43 51°15.457 2°48.694 12.3 328 15.7 101610 84
2009-06-18 04:08:48 51°15.462 2°48.67 15.1 329 15.7 101620 84
2009-06-18 04:08:53 51°15.467 2°48.646 15 301 15.7 101620 84
2009-06-18 04:08:58 51°15.472 2°48.622 11.6 326 15.6 101610 84
2009-06-18 04:09:03 51°15.477 2°48.599 13.4 331 15.6 101610 84
2009-06-18 04:09:08 51°15.483 2°48.575 11.3 326 15.6 101630 84
2009-06-18 04:09:13 51°15.488 2°48.552 12.9 327 15.6 101630 84
2009-06-18 04:09:18 51°15.494 2°48.528 12.9 331 15.6 101600 84
2009-06-18 04:09:23 51°15.499 2°48.505 12 328 15.6 101600 84
2009-06-18 04:09:28 51°15.504 2°48.481 13.8 330 15.6 101620 84
2009-06-18 04:09:33 51°15.51 2°48.458 12.3 330 15.6 101620 84
2009-06-18 04:09:38 51°15.516 2°48.434 12.4 328 15.6 101620 84
2009-06-18 04:09:43 51°15.521 2°48.411 13.9 329 15.6 101620 84
2009-06-18 04:09:48 51°15.526 2°48.387 14.1 331 15.6 101620 84
2009-06-18 04:09:53 51°15.532 2°48.365 14.5 329 15.6 101620 84
2009-06-18 04:09:58 51°15.537 2°48.341 13.9 330 15.6 101620 84
2009-06-18 04:10:04 51°15.543 2°48.313 15.2 329 15.6 101620 84
2009-06-18 04:10:08 51°15.547 2°48.294 11.8 328 15.6 101620 83
2009-06-18 04:10:13 51°15.553 2°48.27 13.4 330 15.6 101620 83
2009-06-18 04:10:18 51°15.559 2°48.247 13.6 329 15.6 101630 83
2009-06-18 04:10:23 51°15.564 2°48.223 11.4 329 15.6 101630 83
2009-06-18 04:10:28 51°15.569 2°48.2 13.3 327 15.6 101620 84
2009-06-18 04:10:33 51°15.574 2°48.175 14.5 283 15.6 101620 84
2009-06-18 04:10:38 51°15.579 2°48.151 15.9 329 15.6 101630 84
2009-06-18 04:10:44 51°15.585 2°48.122 12.5 328 15.6 101630 84
2009-06-18 04:10:48 51°15.589 2°48.103 13.3 329 15.6 101630 84
2009-06-18 04:10:53 51°15.594 2°48.079 13.6 301 15.6 101630 84
2009-06-18 04:10:58 51°15.599 2°48.056 13.5 330 15.6 101620 84
2009-06-18 04:11:03 51°15.604 2°48.032 15.3 331 15.6 101620 84
2009-06-18 04:11:08 51°15.609 2°48.008 12.6 330 15.6 101630 84
2009-06-18 04:11:13 51°15.614 2°47.984 13.7 331 15.6 101630 84
2009-06-18 04:11:18 51°15.62 2°47.96 13.4 330 15.6 101620 84
2009-06-18 04:11:23 51°15.625 2°47.936 13 330 15.6 101620 84
2009-06-18 04:11:28 51°15.63 2°47.912 14.9 331 15.5 101620 83
2009-06-18 04:11:33 51°15.635 2°47.888 15.1 329 15.5 101620 83
2009-06-18 04:11:38 51°15.64 2°47.864 15 328 15.5 101630 83
2009-06-18 04:11:43 51°15.645 2°47.839 12.4 328 15.5 101630 83
2009-06-18 04:11:48 51°15.65 2°47.816 14.6 329 15.5 101620 83
2009-06-18 04:11:53 51°15.656 2°47.792 12.5 329 15.5 101620 83
2009-06-18 04:11:58 51°15.661 2°47.768 13.2 330 15.5 101630 83
2009-06-18 04:12:03 51°15.666 2°47.744 16.2 329 15.5 101630 83
2009-06-18 04:12:08 51°15.671 2°47.72 14.2 329 15.5 101620 83
2009-06-18 04:12:13 51°15.677 2°47.697 15.2 330 15.5 101620 83
2009-06-18 04:12:18 51°15.683 2°47.673 13.1 330 15.5 101640 83
2009-06-18 04:12:23 51°15.689 2°47.649 15 330 15.5 101640 83
2009-06-18 04:12:28 51°15.695 2°47.626 14.4 329 15.5 101620 83
2009-06-18 04:12:33 51°15.701 2°47.603 12.9 280 15.5 101620 83
2009-06-18 04:12:38 51°15.707 2°47.579 15.4 329 15.5 101630 83
2009-06-18 04:12:43 51°15.713 2°47.556 14.9 329 15.5 101630 83
2009-06-18 04:12:48 51°15.719 2°47.533 14.8 331 15.5 101630 83
2009-06-18 04:12:53 51°15.725 2°47.509 12.3 330 15.5 101630 83
2009-06-18 04:12:58 51°15.731 2°47.486 12.3 330 15.5 101640 83
2009-06-18 04:13:04 51°15.739 2°47.458 14.9 330 15.5 101640 83
2009-06-18 04:13:08 51°15.744 2°47.44 14.9 329 15.5 101630 83
2009-06-18 04:13:13 51°15.75 2°47.416 12.6 329 15.5 101630 83
2009-06-18 04:13:18 51°15.756 2°47.393 12.8 329 15.5 101630 83
2009-06-18 04:13:23 51°15.762 2°47.369 14.7 330 15.5 101630 83
2009-06-18 04:13:28 51°15.768 2°47.346 14.2 331 15.5 101630 83
2009-06-18 04:13:33 51°15.774 2°47.323 13.4 330 15.5 101630 83
2009-06-18 04:13:38 51°15.78 2°47.299 16.2 330 15.5 101640 83
2009-06-18 04:13:43 51°15.786 2°47.276 16 330 15.5 101640 83
2009-06-18 04:13:48 51°15.792 2°47.253 14.9 329 15.5 101630 83
2009-06-18 04:13:53 51°15.798 2°47.229 14.9 330 15.5 101630 83
2009-06-18 04:13:58 51°15.805 2°47.206 12.9 330 15.5 101610 83
2009-06-18 04:14:03 51°15.811 2°47.183 14.3 330 15.5 101610 83
2009-06-18 04:14:08 51°15.818 2°47.16 12.1 329 15.5 101630 83
2009-06-18 04:14:13 51°15.824 2°47.137 11.9 330 15.5 101630 83
2009-06-18 04:14:18 51°15.83 2°47.114 13.7 329 15.5 101630 83
2009-06-18 04:14:23 51°15.836 2°47.091 14 330 15.5 101630 83
2009-06-18 04:14:28 51°15.842 2°47.067 13.5 330 15.5 101630 83
2009-06-18 04:14:33 51°15.849 2°47.044 11.9 284 15.5 101630 83
2009-06-18 04:14:38 51°15.855 2°47.021 14.3 328 15.5 101630 83
2009-06-18 04:14:43 51°15.861 2°46.998 15.9 330 15.5 101630 83
2009-06-18 04:14:48 51°15.867 2°46.975 15.5 328 15.5 101630 83
2009-06-18 04:14:53 51°15.873 2°46.952 13.1 301 15.5 101630 83
2009-06-18 04:14:58 51°15.88 2°46.929 14.7 328 15.5 101630 83
2009-06-18 04:15:03 51°15.886 2°46.907 13 328 15.5 101630 83
2009-06-18 04:15:08 51°15.893 2°46.884 12.7 327 15.5 101630 84
2009-06-18 04:15:13 51°15.9 2°46.862 12.3 330 15.5 101630 84
2009-06-18 04:15:18 51°15.906 2°46.839 12.3 328 15.5 101620 83
2009-06-18 04:15:23 51°15.913 2°46.817 14.1 329 15.5 101620 83
2009-06-18 04:15:28 51°15.92 2°46.794 14.3 329 15.5 101620 83
2009-06-18 04:15:33 51°15.927 2°46.772 13.4 329 15.5 101620 83
2009-06-18 04:15:38 51°15.934 2°46.75 12.5 328 15.5 101630 82
2009-06-18 04:15:43 51°15.941 2°46.728 15.5 328 15.5 101630 82
2009-06-18 04:15:48 51°15.949 2°46.707 14.9 328 15.5 101630 83
2009-06-18 04:15:53 51°15.956 2°46.685 12.6 328 15.5 101630 83
2009-06-18 04:15:58 51°15.963 2°46.663 14.7 327 15.5 101630 83
2009-06-18 04:16:03 51°15.97 2°46.641 13 328 15.5 101630 83
2009-06-18 04:16:08 51°15.978 2°46.62 12.9 330 15.5 101620 83
2009-06-18 04:16:13 51°15.984 2°46.597 15.3 330 15.5 101620 83
2009-06-18 04:16:18 51°15.991 2°46.574 15.2 330 15.5 101630 83
2009-06-18 04:16:23 51°15.998 2°46.552 14.9 329 15.5 101630 83
2009-06-18 04:16:28 51°16.005 2°46.53 12.9 330 15.5 101630 83
2009-06-18 04:16:33 51°16.013 2°46.508 13.9 280 15.5 101630 83
2009-06-18 04:16:38 51°16.02 2°46.486 12.4 329 15.5 101630 82
2009-06-18 04:16:43 51°16.027 2°46.464 12.4 328 15.5 101630 82
2009-06-18 04:16:48 51°16.034 2°46.442 15 328 15.4 101630 82
2009-06-18 04:16:53 51°16.041 2°46.419 15.1 329 15.4 101630 82
2009-06-18 04:16:58 51°16.048 2°46.396 12.4 330 15.4 101620 82
2009-06-18 04:17:03 51°16.054 2°46.374 12.2 330 15.4 101620 82
2009-06-18 04:17:08 51°16.062 2°46.352 12.9 329 15.4 101630 82
2009-06-18 04:17:13 51°16.068 2°46.329 14.2 329 15.4 101630 82
2009-06-18 04:17:18 51°16.075 2°46.307 12 328 15.4 101640 83
2009-06-18 04:17:23 51°16.082 2°46.285 13.8 330 15.4 101640 83
2009-06-18 04:17:28 51°16.089 2°46.263 14.3 328 15.5 101630 83
2009-06-18 04:17:33 51°16.096 2°46.241 11.8 301 15.5 101630 83
2009-06-18 04:17:38 51°16.103 2°46.219 12.2 327 15.5 101640 83
2009-06-18 04:17:43 51°16.109 2°46.196 13.7 328 15.5 101640 83
2009-06-18 04:17:48 51°16.116 2°46.174 14.2 328 15.4 101630 83
2009-06-18 04:17:53 51°16.123 2°46.151 14 328 15.4 101630 83
2009-06-18 04:17:58 51°16.13 2°46.129 14.2 326 15.4 101630 82
2009-06-18 04:18:03 51°16.136 2°46.107 13.6 328 15.4 101630 82
2009-06-18 04:18:08 51°16.143 2°46.085 15.2 326 15.4 101640 82
2009-06-18 04:18:13 51°16.15 2°46.063 13 327 15.4 101640 82
2009-06-18 04:18:18 51°16.157 2°46.041 15.6 326 15.4 101630 83
2009-06-18 04:18:23 51°16.164 2°46.019 14.4 328 15.4 101630 83
2009-06-18 04:18:28 51°16.171 2°45.997 14.3 328 15.4 101630 82
2009-06-18 04:18:33 51°16.178 2°45.976 13.5 281 15.4 101630 82
2009-06-18 04:18:38 51°16.184 2°45.954 13.5 327 15.4 101610 82
2009-06-18 04:18:43 51°16.191 2°45.931 13.4 329 15.4 101610 82
2009-06-18 04:18:48 51°16.198 2°45.909 13.6 328 15.4 101620 82
2009-06-18 04:18:53 51°16.204 2°45.887 11.5 328 15.4 101620 82
2009-06-18 04:18:58 51°16.211 2°45.865 11.5 329 15.4 101630 83
2009-06-18 04:19:04 51°16.219 2°45.838 13.7 329 15.4 101630 83
2009-06-18 04:19:08 51°16.224 2°45.82 14.2 330 15.4 101640 83
2009-06-18 04:19:13 51°16.231 2°45.798 12.4 330 15.4 101640 83
2009-06-18 04:19:18 51°16.237 2°45.776 13.8 331 15.4 101630 83
2009-06-18 04:19:23 51°16.244 2°45.754 12.7 330 15.4 101630 83
2009-06-18 04:19:28 51°16.25 2°45.732 13.3 329 15.5 101630 83
2009-06-18 04:19:33 51°16.257 2°45.71 11.7 331 15.5 101630 83
2009-06-18 04:19:38 51°16.265 2°45.689 12.1 328 15.5 101640 83
2009-06-18 04:19:44 51°16.273 2°45.663 11.6 329 15.5 101640 83
2009-06-18 04:19:48 51°16.28 2°45.647 14.8 328 15.5 101630 83
2009-06-18 04:19:53 51°16.288 2°45.626 13.1 327 15.5 101630 83
2009-06-18 04:19:58 51°16.296 2°45.606 14.2 325 15.4 101640 83
2009-06-18 04:20:03 51°16.304 2°45.586 13.5 325 15.4 101640 83
2009-06-18 04:20:08 51°16.313 2°45.566 13 325 15.4 101630 82
2009-06-18 04:20:13 51°16.321 2°45.546 11.1 301 15.4 101630 82
2009-06-18 04:20:18 51°16.33 2°45.526 13.2 325 15.4 101630 82
2009-06-18 04:20:23 51°16.339 2°45.506 10.7 325 15.4 101630 82
2009-06-18 04:20:28 51°16.348 2°45.486 11.5 323 15.4 101640 82
2009-06-18 04:20:33 51°16.357 2°45.466 13.7 282 15.4 101640 82
2009-06-18 04:20:38 51°16.366 2°45.447 13.4 324 15.4 101630 83
2009-06-18 04:20:43 51°16.374 2°45.427 13.7 323 15.4 101630 83
2009-06-18 04:20:48 51°16.383 2°45.407 15.8 324 15.4 101630 82
2009-06-18 04:20:53 51°16.392 2°45.387 14.2 325 15.4 101630 82
2009-06-18 04:20:58 51°16.401 2°45.368 12 324 15.5 101630 83
2009-06-18 04:21:03 51°16.41 2°45.348 13.7 325 15.5 101630 83
2009-06-18 04:21:08 51°16.419 2°45.329 13.7 323 15.5 101630 83
2009-06-18 04:21:13 51°16.428 2°45.309 13.8 326 15.5 101630 83
2009-06-18 04:21:18 51°16.437 2°45.29 11.3 326 15.4 101620 83
2009-06-18 04:21:24 51°16.447 2°45.267 12.6 326 15.4 101620 83
2009-06-18 04:21:28 51°16.455 2°45.251 11.6 326 15.4 101620 83
2009-06-18 04:21:33 51°16.463 2°45.231 12.4 328 15.4 101620 83
2009-06-18 04:21:38 51°16.472 2°45.212 13.9 326 15.4 101630 83
2009-06-18 04:21:43 51°16.481 2°45.192 11.6 327 15.4 101630 83
2009-06-18 04:21:48 51°16.49 2°45.173 13.7 327 15.5 101630 83
2009-06-18 04:21:53 51°16.499 2°45.154 11.9 300 15.5 101630 83
2009-06-18 04:21:58 51°16.508 2°45.134 13.4 326 15.5 101630 83
2009-06-18 04:22:04 51°16.518 2°45.11 11.3 326 15.5 101630 83
2009-06-18 04:22:08 51°16.525 2°45.094 13.6 325 15.4 101630 83
2009-06-18 04:22:13 51°16.534 2°45.074 14 324 15.4 101630 83
2009-06-18 04:22:18 51°16.543 2°45.053 11.3 326 15.4 101620 83
2009-06-18 04:22:23 51°16.551 2°45.033 12.4 303 15.4 101620 83
2009-06-18 04:22:28 51°16.56 2°45.013 11.9 325 15.4 101620 83
2009-06-18 04:22:33 51°16.569 2°44.994 14.1 281 15.4 101620 83
2009-06-18 04:22:38 51°16.578 2°44.974 14.5 327 15.4 101620 82
2009-06-18 04:22:43 51°16.586 2°44.954 12.4 327 15.4 101620 82
2009-06-18 04:22:48 51°16.595 2°44.933 12.9 326 15.4 101630 83
2009-06-18 04:22:53 51°16.603 2°44.913 13.9 326 15.4 101630 83
2009-06-18 04:22:57 51°16.61 2°44.896 14.7 325 15.4 101620 83
2009-06-18 04:23:03 51°16.62 2°44.872 11.8 302 15.4 101620 83
2009-06-18 04:23:08 51°16.629 2°44.852 15.1 326 15.4 101620 82
2009-06-18 04:23:13 51°16.638 2°44.832 13.4 325 15.4 101620 82
2009-06-18 04:23:18 51°16.646 2°44.811 14.5 326 15.4 101620 83
2009-06-18 04:23:23 51°16.654 2°44.791 14.6 324 15.4 101620 83
2009-06-18 04:23:28 51°16.663 2°44.771 15.1 326 15.4 101620 83
2009-06-18 04:23:33 51°16.672 2°44.751 11.7 303 15.4 101620 83
2009-06-18 04:23:38 51°16.681 2°44.73 15 326 15.4 101630 82
2009-06-18 04:23:44 51°16.691 2°44.706 12.6 324 15.4 101630 82
2009-06-18 04:23:48 51°16.698 2°44.69 14.3 326 15.4 101610 82
2009-06-18 04:23:53 51°16.707 2°44.67 14.3 326 15.4 101610 82
2009-06-18 04:23:58 51°16.716 2°44.65 12.3 326 15.4 101610 83
2009-06-18 04:24:03 51°16.725 2°44.63 12.2 300 15.4 101610 83
2009-06-18 04:24:08 51°16.734 2°44.61 14.4 326 15.4 101620 82
2009-06-18 04:24:13 51°16.743 2°44.59 11.9 300 15.4 101620 82
2009-06-18 04:24:18 51°16.752 2°44.57 12.1 325 15.4 101620 82
2009-06-18 04:24:24 51°16.762 2°44.546 13.3 306 15.4 101620 82
2009-06-18 04:24:28 51°16.769 2°44.53 12.1 325 15.4 101620 82
2009-06-18 04:24:33 51°16.778 2°44.51 13.9 282 15.4 101620 82
2009-06-18 04:24:38 51°16.787 2°44.49 12 326 15.4 101630 82
2009-06-18 04:24:43 51°16.796 2°44.47 14.6 327 15.4 101630 82
2009-06-18 04:24:48 51°16.805 2°44.449 11.7 326 15.4 101620 82
2009-06-18 04:24:53 51°16.813 2°44.429 13.6 303 15.4 101620 82
2009-06-18 04:24:58 51°16.822 2°44.408 14.7 325 15.4 101630 82
2009-06-18 04:25:03 51°16.831 2°44.387 11.5 304 15.4 101630 82
2009-06-18 04:25:08 51°16.839 2°44.367 14.8 325 15.4 101630 82
2009-06-18 04:25:13 51°16.848 2°44.347 13.8 304 15.4 101630 82
2009-06-18 04:25:18 51°16.857 2°44.326 14.2 324 15.4 101630 82
2009-06-18 04:25:23 51°16.865 2°44.305 12.8 302 15.4 101630 82
2009-06-18 04:25:28 51°16.874 2°44.285 12.5 324 15.4 101620 83
2009-06-18 04:25:33 51°16.882 2°44.264 14.1 325 15.4 101620 83
2009-06-18 04:25:38 51°16.891 2°44.243 15 326 15.4 101620 82
2009-06-18 04:25:43 51°16.9 2°44.223 12.1 302 15.4 101620 82
2009-06-18 04:25:48 51°16.908 2°44.202 13.7 327 15.4 101630 83
2009-06-18 04:25:53 51°16.917 2°44.181 14.1 326 15.4 101630 83
2009-06-18 04:25:58 51°16.925 2°44.16 11.8 325 15.4 101610 83
2009-06-18 04:26:03 51°16.934 2°44.139 13.3 305 15.4 101610 83
2009-06-18 04:26:08 51°16.942 2°44.119 13.7 325 15.4 101610 82
2009-06-18 04:26:13 51°16.951 2°44.098 12.3 303 15.4 101610 82
2009-06-18 04:26:18 51°16.959 2°44.077 14.5 323 15.4 101620 82
2009-06-18 04:26:23 51°16.968 2°44.056 14.9 324 15.4 101620 82
2009-06-18 04:26:28 51°16.977 2°44.036 12.8 324 15.4 101620 82
2009-06-18 04:26:33 51°16.985 2°44.015 13.5 279 15.4 101620 82
2009-06-18 04:26:38 51°16.994 2°43.995 14.3 325 15.4 101620 83
2009-06-18 04:26:44 51°17.004 2°43.97 12 326 15.4 101620 83
2009-06-18 04:26:48 51°17.011 2°43.953 14.5 325 15.4 101620 82
2009-06-18 04:26:53 51°17.02 2°43.932 14.1 327 15.4 101620 82
2009-06-18 04:26:58 51°17.028 2°43.911 12.7 327 15.4 101620 82
2009-06-18 04:27:03 51°17.037 2°43.89 13.1 326 15.4 101620 82
2009-06-18 04:27:08 51°17.046 2°43.87 12.1 325 15.4 101610 82
2009-06-18 04:27:13 51°17.055 2°43.85 14.4 325 15.4 101610 82
2009-06-18 04:27:18 51°17.064 2°43.829 14.4 325 15.4 101620 82
2009-06-18 04:27:23 51°17.072 2°43.808 14.3 304 15.4 101620 82
2009-06-18 04:27:28 51°17.081 2°43.787 12.1 325 15.4 101620 83
2009-06-18 04:27:33 51°17.089 2°43.767 13.6 301 15.4 101620 83
2009-06-18 04:27:38 51°17.098 2°43.746 11.6 326 15.4 101620 82
2009-06-18 04:27:43 51°17.106 2°43.725 12.9 305 15.4 101620 82
2009-06-18 04:27:48 51°17.115 2°43.704 12.1 325 15.4 101620 83
2009-06-18 04:27:53 51°17.123 2°43.684 11.9 325 15.4 101620 83
2009-06-18 04:27:58 51°17.132 2°43.663 13.2 324 15.4 101610 83
2009-06-18 04:28:03 51°17.14 2°43.642 12.1 302 15.4 101610 83
2009-06-18 04:28:08 51°17.149 2°43.622 14.5 327 15.4 101620 83
2009-06-18 04:28:13 51°17.158 2°43.601 14.1 327 15.4 101620 83
2009-06-18 04:28:18 51°17.167 2°43.581 12.7 325 15.4 101610 83
2009-06-18 04:28:23 51°17.176 2°43.56 14.4 325 15.4 101610 83
2009-06-18 04:28:28 51°17.184 2°43.539 12.6 324 15.4 101630 83
2009-06-18 04:28:33 51°17.193 2°43.519 13.7 278 15.4 101630 83
2009-06-18 04:28:38 51°17.202 2°43.498 12.2 326 15.4 101620 83
2009-06-18 04:28:43 51°17.21 2°43.477 14.1 326 15.4 101620 83
2009-06-18 04:28:48 51°17.219 2°43.456 14.2 325 15.4 101620 83
2009-06-18 04:28:53 51°17.228 2°43.436 11.8 326 15.4 101620 83
2009-06-18 04:28:58 51°17.236 2°43.415 12.2 328 15.4 101610 82
2009-06-18 04:29:03 51°17.245 2°43.395 14.7 329 15.4 101610 82
2009-06-18 04:29:08 51°17.254 2°43.374 14.5 328 15.4 101610 83
2009-06-18 04:29:13 51°17.263 2°43.354 14.3 327 15.4 101610 83
2009-06-18 04:29:18 51°17.271 2°43.334 14.3 328 15.4 101620 83
2009-06-18 04:29:23 51°17.28 2°43.313 14.2 329 15.4 101620 83
2009-06-18 04:29:28 51°17.289 2°43.293 12.7 327 15.4 101630 83
2009-06-18 04:29:33 51°17.298 2°43.272 13.5 327 15.4 101630 83
2009-06-18 04:29:38 51°17.307 2°43.252 14.3 325 15.4 101620 83
2009-06-18 04:29:43 51°17.315 2°43.232 12.1 327 15.4 101620 83
2009-06-18 04:29:48 51°17.324 2°43.211 13.7 329 15.4 101610 82
2009-06-18 04:29:53 51°17.333 2°43.191 12.8 329 15.4 101610 82
2009-06-18 04:29:58 51°17.342 2°43.17 12.1 328 15.4 101620 82
2009-06-18 04:30:03 51°17.35 2°43.15 11.9 303 15.4 101620 82
2009-06-18 04:30:08 51°17.359 2°43.13 12.3 327 15.4 101620 82
2009-06-18 04:30:13 51°17.368 2°43.11 12.7 326 15.4 101620 82
2009-06-18 04:30:18 51°17.377 2°43.089 14.4 327 15.4 101610 82
2009-06-18 04:30:24 51°17.387 2°43.065 13.6 326 15.4 101610 82
2009-06-18 04:30:28 51°17.395 2°43.049 11.9 327 15.4 101630 83
2009-06-18 04:30:33 51°17.403 2°43.029 12.3 282 15.4 101630 83
2009-06-18 04:30:38 51°17.412 2°43.008 11.8 325 15.4 101630 82
2009-06-18 04:30:43 51°17.421 2°42.988 11.6 325 15.4 101630 82
2009-06-18 04:30:48 51°17.43 2°42.968 13.7 326 15.4 101620 82
2009-06-18 04:30:53 51°17.439 2°42.948 13.2 327 15.4 101620 82
2009-06-18 04:30:58 51°17.449 2°42.929 14 327 15.4 101620 82
2009-06-18 04:31:03 51°17.458 2°42.909 11.7 327 15.4 101620 82
2009-06-18 04:31:08 51°17.467 2°42.889 14 327 15.4 101620 82
2009-06-18 04:31:13 51°17.476 2°42.869 13.2 326 15.4 101620 82
2009-06-18 04:31:18 51°17.485 2°42.849 11.9 327 15.4 101630 82
2009-06-18 04:31:23 51°17.494 2°42.829 11.6 302 15.4 101630 82
2009-06-18 04:31:28 51°17.503 2°42.809 13.3 328 15.4 101620 82
2009-06-18 04:31:33 51°17.512 2°42.788 11.6 327 15.4 101620 82
2009-06-18 04:31:38 51°17.521 2°42.768 13.8 327 15.4 101630 82
2009-06-18 04:31:43 51°17.531 2°42.748 11.3 302 15.4 101630 82
2009-06-18 04:31:48 51°17.54 2°42.728 13.4 328 15.4 101630 83
2009-06-18 04:31:53 51°17.549 2°42.708 11.9 302 15.4 101630 83
2009-06-18 04:31:58 51°17.559 2°42.688 14.1 327 15.4 101640 83
2009-06-18 04:32:03 51°17.568 2°42.667 13.5 328 15.4 101640 83
2009-06-18 04:32:08 51°17.577 2°42.647 14.6 327 15.4 101620 83
2009-06-18 04:32:13 51°17.586 2°42.627 12.1 327 15.4 101620 83
2009-06-18 04:32:18 51°17.596 2°42.607 14.1 327 15.4 101630 83
2009-06-18 04:32:23 51°17.605 2°42.587 14.1 328 15.4 101630 83
2009-06-18 04:32:28 51°17.614 2°42.567 11.9 328 15.4 101620 83
2009-06-18 04:32:33 51°17.623 2°42.546 14.4 282 15.4 101620 83
2009-06-18 04:32:38 51°17.633 2°42.526 11.8 327 15.4 101630 83
2009-06-18 04:32:44 51°17.644 2°42.502 11.7 303 15.4 101630 83
2009-06-18 04:32:48 51°17.651 2°42.485 14.6 325 15.4 101620 82
2009-06-18 04:32:53 51°17.66 2°42.465 12.3 302 15.4 101620 82
2009-06-18 04:32:58 51°17.669 2°42.444 11.9 327 15.4 101630 82
2009-06-18 04:33:03 51°17.678 2°42.424 12.7 303 15.4 101630 82
2009-06-18 04:33:08 51°17.687 2°42.403 12.8 325 15.4 101620 83
2009-06-18 04:33:13 51°17.696 2°42.383 14.5 327 15.4 101620 83
2009-06-18 04:33:18 51°17.706 2°42.362 13.3 328 15.4 101610 82
2009-06-18 04:33:24 51°17.717 2°42.338 13.9 326 15.4 101610 82
2009-06-18 04:33:28 51°17.724 2°42.322 12.2 326 15.4 101620 82
2009-06-18 04:33:33 51°17.733 2°42.302 11.2 329 15.4 101620 82
2009-06-18 04:33:38 51°17.742 2°42.282 12.9 328 15.4 101620 82
2009-06-18 04:33:43 51°17.752 2°42.261 12 329 15.4 101620 82
2009-06-18 04:33:48 51°17.761 2°42.24 12.1 327 15.4 101620 82
2009-06-18 04:33:53 51°17.77 2°42.22 13.5 303 15.4 101620 82
2009-06-18 04:33:58 51°17.779 2°42.199 13.8 324 15.4 101620 82
2009-06-18 04:34:03 51°17.789 2°42.179 14.1 302 15.4 101620 82
2009-06-18 04:34:08 51°17.797 2°42.159 12.4 326 15.4 101630 82
2009-06-18 04:34:13 51°17.807 2°42.138 14.8 326 15.4 101630 82
2009-06-18 04:34:18 51°17.816 2°42.118 12.3 325 15.4 101640 83
2009-06-18 04:34:23 51°17.825 2°42.097 12.8 326 15.4 101640 83
2009-06-18 04:34:28 51°17.834 2°42.076 14.4 326 15.4 101630 83
2009-06-18 04:34:33 51°17.843 2°42.056 12.7 286 15.4 101630 83
2009-06-18 04:34:38 51°17.852 2°42.035 12.2 327 15.4 101630 83
2009-06-18 04:34:43 51°17.861 2°42.015 14 302 15.4 101630 83
2009-06-18 04:34:48 51°17.87 2°41.994 12.7 325 15.4 101620 82
2009-06-18 04:34:53 51°17.878 2°41.973 12.4 304 15.4 101620 82
2009-06-18 04:34:58 51°17.887 2°41.953 12.3 326 15.4 101610 83
2009-06-18 04:35:03 51°17.896 2°41.932 12.3 328 15.4 101610 83
2009-06-18 04:35:08 51°17.906 2°41.912 13 325 15.4 101630 83
2009-06-18 04:35:13 51°17.915 2°41.891 14.1 327 15.4 101630 83
2009-06-18 04:35:18 51°17.924 2°41.871 13.9 326 15.4 101620 82
2009-06-18 04:35:23 51°17.933 2°41.85 13.6 326 15.4 101620 82
2009-06-18 04:35:28 51°17.942 2°41.83 12.9 328 15.4 101620 83
2009-06-18 04:35:33 51°17.952 2°41.809 13.3 327 15.4 101620 83
2009-06-18 04:35:38 51°17.961 2°41.788 11.4 326 15.4 101620 82
2009-06-18 04:35:43 51°17.969 2°41.768 13.6 326 15.4 101620 82
2009-06-18 04:35:48 51°17.979 2°41.747 11.2 326 15.4 101630 83
2009-06-18 04:35:53 51°17.987 2°41.726 14.4 302 15.4 101630 83
2009-06-18 04:35:58 51°17.996 2°41.705 13.6 327 15.4 101630 82
2009-06-18 04:36:03 51°18.005 2°41.684 11.7 327 15.4 101630 82
2009-06-18 04:36:08 51°18.013 2°41.663 14.8 326 15.4 101640 83
2009-06-18 04:36:13 51°18.022 2°41.641 13.9 326 15.4 101640 83
2009-06-18 04:36:18 51°18.031 2°41.621 12 327 15.4 101620 83
2009-06-18 04:36:23 51°18.04 2°41.6 11.7 303 15.4 101620 83
2009-06-18 04:36:28 51°18.048 2°41.579 13.6 327 15.4 101640 83
2009-06-18 04:36:33 51°18.057 2°41.558 13.3 287 15.4 101640 83
2009-06-18 04:36:38 51°18.066 2°41.537 13.3 327 15.4 101630 83
2009-06-18 04:36:43 51°18.075 2°41.516 14.2 329 15.4 101630 83
2009-06-18 04:36:48 51°18.084 2°41.496 13.9 328 15.4 101630 83
2009-06-18 04:36:53 51°18.093 2°41.475 11.9 329 15.4 101630 83
2009-06-18 04:36:58 51°18.101 2°41.454 11.7 327 15.4 101630 83
2009-06-18 04:37:03 51°18.111 2°41.433 13.8 327 15.4 101630 83
2009-06-18 04:37:08 51°18.12 2°41.413 11.5 326 15.4 101640 83
2009-06-18 04:37:13 51°18.129 2°41.392 13.4 326 15.4 101640 83
2009-06-18 04:37:18 51°18.138 2°41.371 13.9 327 15.4 101620 83
2009-06-18 04:37:23 51°18.147 2°41.351 12.3 327 15.4 101620 83
2009-06-18 04:37:28 51°18.156 2°41.33 11.9 325 15.4 101640 83
2009-06-18 04:37:33 51°18.164 2°41.309 14.1 326 15.4 101640 83
2009-06-18 04:37:38 51°18.173 2°41.288 12.9 328 15.4 101640 83
2009-06-18 04:37:43 51°18.182 2°41.268 13 327 15.4 101640 83
2009-06-18 04:37:48 51°18.191 2°41.247 12.9 324 15.4 101630 83
2009-06-18 04:37:53 51°18.2 2°41.226 11.2 328 15.4 101630 83
2009-06-18 04:37:58 51°18.209 2°41.205 12.4 326 15.4 101620 83
2009-06-18 04:38:03 51°18.218 2°41.184 10.7 305 15.4 101620 83
2009-06-18 04:38:08 51°18.228 2°41.164 10.1 326 15.4 101640 83
2009-06-18 04:38:13 51°18.237 2°41.144 11.6 302 15.4 101640 83
2009-06-18 04:38:18 51°18.246 2°41.123 12.1 325 15.4 101630 83
2009-06-18 04:38:24 51°18.256 2°41.099 14.1 325 15.4 101630 83
2009-06-18 04:38:28 51°18.264 2°41.082 12.9 325 15.5 101630 83
2009-06-18 04:38:33 51°18.273 2°41.062 12.1 281 15.5 101630 83
2009-06-18 04:38:38 51°18.282 2°41.042 14.2 324 15.4 101630 84
2009-06-18 04:38:43 51°18.291 2°41.021 13.1 323 15.4 101630 84
2009-06-18 04:38:48 51°18.301 2°41.001 13.3 325 15.4 101630 83
2009-06-18 04:38:53 51°18.31 2°40.981 11.8 326 15.4 101630 83
2009-06-18 04:38:58 51°18.32 2°40.961 11.7 324 15.4 101620 83
2009-06-18 04:39:03 51°18.329 2°40.941 13.2 327 15.4 101620 83
2009-06-18 04:39:08 51°18.338 2°40.92 13.1 324 15.4 101620 83
2009-06-18 04:39:13 51°18.347 2°40.9 13.6 326 15.4 101620 83
2009-06-18 04:39:18 51°18.356 2°40.88 14 325 15.4 101630 83
2009-06-18 04:39:23 51°18.366 2°40.859 12.4 325 15.4 101630 83
2009-06-18 04:39:28 51°18.375 2°40.839 14 325 15.4 101630 82
2009-06-18 04:39:33 51°18.384 2°40.819 13.4 326 15.4 101630 82
2009-06-18 04:39:38 51°18.393 2°40.799 11.5 325 15.4 101630 83
2009-06-18 04:39:43 51°18.403 2°40.778 13.6 301 15.4 101630 83
2009-06-18 04:39:48 51°18.412 2°40.758 12.9 325 15.4 101620 83
2009-06-18 04:39:53 51°18.421 2°40.737 13.2 303 15.4 101620 83
2009-06-18 04:39:58 51°18.431 2°40.717 13.6 324 15.3 101630 82
2009-06-18 04:40:03 51°18.44 2°40.696 11.5 302 15.3 101630 82
2009-06-18 04:40:08 51°18.45 2°40.676 11.4 324 15.3 101630 83
2009-06-18 04:40:13 51°18.459 2°40.656 13 304 15.3 101630 83
2009-06-18 04:40:18 51°18.468 2°40.636 11.3 323 15.3 101620 82
2009-06-18 04:40:24 51°18.48 2°40.612 12.6 326 15.3 101620 82
2009-06-18 04:40:28 51°18.487 2°40.596 10.7 326 15.3 101620 83
2009-06-18 04:40:33 51°18.496 2°40.575 10.9 281 15.3 101620 83
2009-06-18 04:40:38 51°18.506 2°40.555 10.9 326 15.4 101620 83
2009-06-18 04:40:43 51°18.515 2°40.535 14.1 324 15.4 101620 83
2009-06-18 04:40:48 51°18.525 2°40.514 14.2 324 15.4 101630 83
2009-06-18 04:40:53 51°18.534 2°40.494 11.8 324 15.4 101630 83
2009-06-18 04:40:58 51°18.544 2°40.474 14.2 325 15.4 101640 83
2009-06-18 04:41:03 51°18.553 2°40.454 11.7 325 15.4 101640 83
2009-06-18 04:41:08 51°18.563 2°40.434 13.7 324 15.4 101640 83
2009-06-18 04:41:13 51°18.572 2°40.413 13.6 323 15.4 101640 83
2009-06-18 04:41:18 51°18.581 2°40.393 11.3 325 15.3 101630 83
2009-06-18 04:41:23 51°18.59 2°40.372 14.2 325 15.3 101630 83
2009-06-18 04:41:28 51°18.6 2°40.352 11.6 326 15.3 101630 83
2009-06-18 04:41:33 51°18.609 2°40.332 12.5 304 15.3 101630 83
2009-06-18 04:41:38 51°18.619 2°40.311 10.9 326 15.3 101620 83
2009-06-18 04:41:43 51°18.628 2°40.291 11.9 304 15.3 101620 83
2009-06-18 04:41:48 51°18.638 2°40.271 14.2 324 15.3 101630 83
2009-06-18 04:41:53 51°18.647 2°40.251 13.2 325 15.3 101630 83
2009-06-18 04:41:57 51°18.655 2°40.234 14 325 15.3 101630 83
2009-06-18 04:42:03 51°18.666 2°40.21 14 303 15.3 101630 83
2009-06-18 04:42:08 51°18.676 2°40.19 14 325 15.3 101630 82
2009-06-18 04:42:13 51°18.685 2°40.169 11.5 303 15.3 101630 82
2009-06-18 04:42:18 51°18.694 2°40.148 12.9 326 15.3 101630 83
2009-06-18 04:42:23 51°18.703 2°40.127 13.7 327 15.3 101630 83
2009-06-18 04:42:28 51°18.713 2°40.107 13.9 325 15.3 101630 82
2009-06-18 04:42:33 51°18.722 2°40.086 12.2 284 15.3 101630 82
2009-06-18 04:42:38 51°18.732 2°40.066 14.8 324 15.3 101630 83
2009-06-18 04:42:44 51°18.743 2°40.042 14.3 326 15.3 101630 83
2009-06-18 04:42:48 51°18.751 2°40.026 11.6 326 15.3 101630 82
2009-06-18 04:42:53 51°18.76 2°40.005 13.4 326 15.3 101630 82
2009-06-18 04:42:58 51°18.769 2°39.985 13.9 326 15.3 101630 83
2009-06-18 04:43:03 51°18.779 2°39.964 13.2 327 15.3 101630 83
2009-06-18 04:43:08 51°18.788 2°39.944 13.4 325 15.3 101620 83
2009-06-18 04:43:13 51°18.797 2°39.923 11.1 326 15.3 101620 83
2009-06-18 04:43:18 51°18.807 2°39.903 11.2 327 15.3 101630 82
2009-06-18 04:43:23 51°18.816 2°39.882 13.7 327 15.3 101630 82
2009-06-18 04:43:28 51°18.826 2°39.862 11.7 326 15.3 101640 83
2009-06-18 04:43:33 51°18.835 2°39.841 11.6 301 15.3 101640 83
2009-06-18 04:43:38 51°18.844 2°39.821 11 325 15.3 101640 83
2009-06-18 04:43:43 51°18.854 2°39.8 14.2 325 15.3 101640 83
2009-06-18 04:43:48 51°18.863 2°39.78 11.3 326 15.3 101640 83
2009-06-18 04:43:53 51°18.872 2°39.759 13.1 327 15.3 101640 83
2009-06-18 04:43:58 51°18.882 2°39.739 11.5 326 15.3 101640 83
2009-06-18 04:44:03 51°18.891 2°39.719 13.6 302 15.3 101640 83
2009-06-18 04:44:08 51°18.901 2°39.699 12.8 327 15.3 101630 83
2009-06-18 04:44:13 51°18.91 2°39.679 11.5 327 15.3 101630 83
2009-06-18 04:44:18 51°18.92 2°39.659 12.1 328 15.3 101640 83
2009-06-18 04:44:24 51°18.931 2°39.634 13.2 327 15.3 101640 83
2009-06-18 04:44:28 51°18.938 2°39.618 12.6 324 15.3 101640 83
2009-06-18 04:44:33 51°18.947 2°39.597 12.7 280 15.3 101640 83
2009-06-18 04:44:38 51°18.957 2°39.576 13.4 326 15.3 101640 82
2009-06-18 04:44:43 51°18.966 2°39.556 13 329 15.3 101640 82
2009-06-18 04:44:48 51°18.975 2°39.536 12.1 327 15.3 101640 82
2009-06-18 04:44:53 51°18.984 2°39.515 13.8 303 15.3 101640 82
2009-06-18 04:44:58 51°18.993 2°39.494 13 328 15.3 101650 82
2009-06-18 04:45:04 51°19.004 2°39.469 12.5 329 15.3 101650 82
2009-06-18 04:45:08 51°19.011 2°39.453 12.5 324 15.3 101640 82
2009-06-18 04:45:13 51°19.02 2°39.433 12.2 301 15.3 101640 82
2009-06-18 04:45:18 51°19.03 2°39.412 10.4 325 15.3 101640 82
2009-06-18 04:45:23 51°19.039 2°39.392 12.6 324 15.3 101640 82
2009-06-18 04:45:28 51°19.048 2°39.371 12.5 326 15.3 101650 82
2009-06-18 04:45:33 51°19.057 2°39.351 10.3 301 15.3 101650 82
2009-06-18 04:45:38 51°19.066 2°39.33 13.2 327 15.3 101650 82
2009-06-18 04:45:43 51°19.076 2°39.31 11.6 302 15.3 101650 82
2009-06-18 04:45:48 51°19.085 2°39.289 12.3 327 15.3 101650 83
2009-06-18 04:45:53 51°19.094 2°39.269 12.2 304 15.3 101650 83
2009-06-18 04:45:58 51°19.104 2°39.248 11.5 324 15.3 101650 82
2009-06-18 04:46:03 51°19.113 2°39.228 10.9 328 15.3 101650 82
2009-06-18 04:46:08 51°19.122 2°39.207 13.1 328 15.3 101640 82
2009-06-18 04:46:13 51°19.131 2°39.187 11.2 326 15.3 101640 82
2009-06-18 04:46:18 51°19.14 2°39.166 10.9 326 15.3 101650 82
2009-06-18 04:46:23 51°19.15 2°39.146 11.1 329 15.3 101650 82
2009-06-18 04:46:28 51°19.159 2°39.125 10.8 328 15.3 101650 83
2009-06-18 04:46:33 51°19.168 2°39.105 13.2 277 15.3 101650 83
2009-06-18 04:46:38 51°19.178 2°39.085 13 326 15.3 101650 82
2009-06-18 04:46:43 51°19.187 2°39.064 11.5 329 15.3 101650 82
2009-06-18 04:46:48 51°19.196 2°39.044 11.2 327 15.3 101640 82
2009-06-18 04:46:53 51°19.206 2°39.023 11.5 328 15.3 101640 82
2009-06-18 04:46:58 51°19.215 2°39.002 10.8 326 15.3 101650 83
2009-06-18 04:47:03 51°19.224 2°38.982 10.8 327 15.3 101650 83
2009-06-18 04:47:08 51°19.234 2°38.962 12.6 327 15.3 101640 83
2009-06-18 04:47:13 51°19.243 2°38.942 13.1 327 15.3 101640 83
2009-06-18 04:47:18 51°19.252 2°38.921 11.5 326 15.3 101650 82
2009-06-18 04:47:24 51°19.264 2°38.897 11.9 327 15.3 101650 82
2009-06-18 04:47:28 51°19.271 2°38.88 12.6 327 15.3 101650 82
2009-06-18 04:47:33 51°19.28 2°38.86 12.9 327 15.3 101650 82
2009-06-18 04:47:38 51°19.289 2°38.839 11.3 326 15.2 101650 81
2009-06-18 04:47:43 51°19.298 2°38.819 10.7 327 15.2 101650 81
2009-06-18 04:47:48 51°19.307 2°38.798 11 326 15.3 101650 82
2009-06-18 04:47:53 51°19.316 2°38.777 13.2 326 15.3 101650 82
2009-06-18 04:47:58 51°19.325 2°38.756 11.3 327 15.3 101650 82
2009-06-18 04:48:03 51°19.335 2°38.735 11 327 15.3 101650 82
2009-06-18 04:48:08 51°19.344 2°38.715 13.4 325 15.3 101650 82
2009-06-18 04:48:13 51°19.353 2°38.694 10.9 299 15.3 101650 82
2009-06-18 04:48:18 51°19.362 2°38.674 10.8 328 15.3 101650 82
2009-06-18 04:48:23 51°19.371 2°38.653 11.9 327 15.3 101650 82
2009-06-18 04:48:28 51°19.38 2°38.632 10.4 327 15.3 101650 82
2009-06-18 04:48:33 51°19.389 2°38.612 10.1 279 15.3 101650 82
2009-06-18 04:48:38 51°19.398 2°38.591 10.6 326 15.3 101650 82
2009-06-18 04:48:43 51°19.407 2°38.571 12 327 15.3 101650 82
2009-06-18 04:48:48 51°19.416 2°38.55 9.8 325 15.3 101650 83
2009-06-18 04:48:53 51°19.426 2°38.53 12.7 302 15.3 101650 83
2009-06-18 04:48:58 51°19.435 2°38.509 12.4 327 15.3 101660 82
2009-06-18 04:49:04 51°19.446 2°38.485 11.2 327 15.3 101660 82
2009-06-18 04:49:08 51°19.453 2°38.468 11.3 327 15.3 101650 82
2009-06-18 04:49:13 51°19.462 2°38.448 12.8 327 15.3 101650 82
2009-06-18 04:49:18 51°19.471 2°38.427 12.8 326 15.3 101650 82
2009-06-18 04:49:23 51°19.48 2°38.406 12.8 325 15.3 101650 82
2009-06-18 04:49:28 51°19.489 2°38.385 10.4 327 15.3 101650 83
2009-06-18 04:49:33 51°19.498 2°38.365 10.7 300 15.3 101650 83
2009-06-18 04:49:38 51°19.507 2°38.344 12.9 326 15.3 101650 83
2009-06-18 04:49:43 51°19.516 2°38.324 12.5 326 15.3 101650 83
2009-06-18 04:49:48 51°19.525 2°38.304 11.3 327 15.3 101650 82
2009-06-18 04:49:53 51°19.535 2°38.283 13 327 15.3 101650 82
2009-06-18 04:49:57 51°19.542 2°38.267 11.4 326 15.3 101650 83
2009-06-18 04:50:03 51°19.553 2°38.242 11 327 15.3 101650 83
2009-06-18 04:50:08 51°19.562 2°38.222 12.8 328 15.3 101650 82
2009-06-18 04:50:13 51°19.57 2°38.201 10.9 328 15.3 101650 82
2009-06-18 04:50:18 51°19.579 2°38.18 10.5 326 15.3 101650 83
2009-06-18 04:50:23 51°19.589 2°38.16 13.1 327 15.3 101650 83
2009-06-18 04:50:29 51°19.6 2°38.136 11.2 323 15.3 101650 83
2009-06-18 04:50:33 51°19.607 2°38.12 12.2 284 15.3 101650 83
2009-06-18 04:50:37 51°19.614 2°38.103 11.1 326 15.3 101650 83
2009-06-18 04:50:43 51°19.625 2°38.079 11.3 302 15.3 101650 83
2009-06-18 04:50:48 51°19.634 2°38.058 13.1 327 15.3 101660 83
2009-06-18 04:50:53 51°19.644 2°38.038 12.1 328 15.3 101660 83
2009-06-18 04:50:58 51°19.653 2°38.018 10.7 326 15.3 101650 83
2009-06-18 04:51:03 51°19.662 2°37.998 10.7 303 15.3 101650 83
2009-06-18 04:51:08 51°19.671 2°37.977 10.4 325 15.3 101650 83
2009-06-18 04:51:13 51°19.68 2°37.957 12.2 327 15.3 101650 83
2009-06-18 04:51:17 51°19.687 2°37.941 10.9 326 15.3 101650 83
2009-06-18 04:51:23 51°19.698 2°37.916 12.4 327 15.3 101650 83
2009-06-18 04:51:28 51°19.707 2°37.896 10.9 326 15.2 101650 82
2009-06-18 04:51:33 51°19.716 2°37.875 10.4 328 15.2 101650 82
2009-06-18 04:51:37 51°19.724 2°37.859 10.9 328 15.3 101650 82
2009-06-18 04:51:43 51°19.735 2°37.835 10.8 326 15.3 101650 82
2009-06-18 04:51:48 51°19.744 2°37.814 13.2 324 15.3 101650 82
2009-06-18 04:51:53 51°19.754 2°37.794 10.6 329 15.3 101650 82
2009-06-18 04:51:57 51°19.761 2°37.778 12.2 328 15.3 101660 83
2009-06-18 04:52:03 51°19.772 2°37.754 11 286 15.3 101660 83
2009-06-18 04:52:08 51°19.781 2°37.733 12.2 326 15.3 101660 83
2009-06-18 04:52:13 51°19.791 2°37.713 10.6 328 15.3 101660 83
2009-06-18 04:52:18 51°19.8 2°37.693 13.2 328 15.3 101650 83
2009-06-18 04:52:23 51°19.809 2°37.673 11.2 329 15.3 101650 83
2009-06-18 04:52:28 51°19.819 2°37.653 10.9 329 15.3 101660 83
2009-06-18 04:52:33 51°19.828 2°37.632 10.1 276 15.3 101660 83
2009-06-18 04:52:38 51°19.837 2°37.612 12.3 327 15.3 101660 84
2009-06-18 04:52:43 51°19.847 2°37.591 12.6 328 15.3 101660 84
2009-06-18 04:52:48 51°19.856 2°37.571 11.2 327 15.2 101650 83
2009-06-18 04:52:53 51°19.865 2°37.55 11.2 328 15.2 101650 83
2009-06-18 04:52:58 51°19.875 2°37.53 12.6 327 15.2 101660 83
2009-06-18 04:53:04 51°19.886 2°37.506 13.1 326 15.2 101660 83
2009-06-18 04:53:08 51°19.893 2°37.489 12.7 325 15.3 101660 83
2009-06-18 04:53:13 51°19.903 2°37.469 10.8 327 15.3 101660 83
2009-06-18 04:53:18 51°19.912 2°37.449 10.6 328 15.2 101650 83
2009-06-18 04:53:23 51°19.922 2°37.428 10.9 327 15.2 101650 83
2009-06-18 04:53:28 51°19.931 2°37.408 12.2 325 15.2 101660 83
2009-06-18 04:53:33 51°19.941 2°37.388 12.5 327 15.2 101660 83
2009-06-18 04:53:38 51°19.95 2°37.368 12.4 325 15.2 101650 82
2009-06-18 04:53:43 51°19.959 2°37.347 11.4 326 15.2 101650 82
2009-06-18 04:53:48 51°19.969 2°37.327 11.3 327 15.2 101650 83
2009-06-18 04:53:53 51°19.978 2°37.306 13 328 15.2 101650 83
2009-06-18 04:53:57 51°19.986 2°37.29 13.2 329 15.2 101650 83
2009-06-18 04:54:03 51°19.997 2°37.266 11.3 329 15.2 101650 83
2009-06-18 04:54:08 51°20.007 2°37.245 11.4 328 15.2 101660 83
2009-06-18 04:54:13 51°20.016 2°37.225 12.6 329 15.2 101660 83
2009-06-18 04:54:18 51°20.026 2°37.205 13.6 326 15.2 101660 83
2009-06-18 04:54:23 51°20.035 2°37.184 12.5 302 15.2 101660 83
2009-06-18 04:54:28 51°20.044 2°37.164 9.9 327 15.2 101660 83
2009-06-18 04:54:33 51°20.053 2°37.143 12.4 279 15.2 101660 83
2009-06-18 04:54:37 51°20.061 2°37.127 12.3 325 15.2 101650 82
2009-06-18 04:54:43 51°20.072 2°37.103 10.2 327 15.2 101650 82
2009-06-18 04:54:48 51°20.081 2°37.082 10.8 328 15.2 101650 83
2009-06-18 04:54:53 51°20.091 2°37.062 11.1 327 15.2 101650 83
2009-06-18 04:54:58 51°20.1 2°37.042 12.6 325 15.2 101660 83
2009-06-18 04:55:03 51°20.109 2°37.021 11.8 303 15.2 101660 83
2009-06-18 04:55:08 51°20.118 2°37.001 11.9 328 15.2 101660 82
2009-06-18 04:55:13 51°20.128 2°36.981 13 327 15.2 101660 82
2009-06-18 04:55:17 51°20.135 2°36.964 13.3 328 15.2 101660 82
2009-06-18 04:55:23 51°20.146 2°36.941 11.6 302 15.2 101660 82
2009-06-18 04:55:28 51°20.155 2°36.921 11.9 326 15.2 101660 83
2009-06-18 04:55:33 51°20.165 2°36.901 12 285 15.2 101660 83
2009-06-18 04:55:37 51°20.172 2°36.885 13 329 15.2 101650 82
2009-06-18 04:55:43 51°20.183 2°36.86 13 330 15.2 101650 82
2009-06-18 04:55:48 51°20.192 2°36.84 10.7 330 15.2 101660 82
2009-06-18 04:55:53 51°20.201 2°36.819 10.9 329 15.2 101660 82
2009-06-18 04:55:58 51°20.21 2°36.799 12.6 329 15.2 101660 82
2009-06-18 04:56:03 51°20.219 2°36.779 13 327 15.2 101660 82
2009-06-18 04:56:08 51°20.228 2°36.758 12.6 327 15.2 101660 82
2009-06-18 04:56:13 51°20.237 2°36.738 10.7 303 15.2 101660 82
2009-06-18 04:56:18 51°20.246 2°36.717 11.4 328 15.2 101670 82
2009-06-18 04:56:23 51°20.255 2°36.697 11.3 284 15.2 101670 82
2009-06-18 04:56:28 51°20.264 2°36.677 11.1 326 15.2 101670 83
2009-06-18 04:56:33 51°20.273 2°36.656 10.7 282 15.2 101670 83
2009-06-18 04:56:38 51°20.283 2°36.636 10.5 329 15.2 101660 82
2009-06-18 04:56:43 51°20.291 2°36.616 9.8 303 15.2 101660 82
2009-06-18 04:56:48 51°20.3 2°36.595 12.2 328 15.2 101680 83
2009-06-18 04:56:53 51°20.31 2°36.575 12.5 327 15.2 101680 83
2009-06-18 04:56:58 51°20.319 2°36.555 11.1 330 15.2 101670 83
2009-06-18 04:57:03 51°20.328 2°36.535 12.4 329 15.2 101670 83
2009-06-18 04:57:08 51°20.337 2°36.515 12.6 329 15.2 101670 82
2009-06-18 04:57:13 51°20.347 2°36.495 10.8 329 15.2 101670 82
2009-06-18 04:57:18 51°20.356 2°36.474 12.8 329 15.2 101680 83
2009-06-18 04:57:23 51°20.365 2°36.454 10.7 328 15.2 101680 83
2009-06-18 04:57:28 51°20.374 2°36.434 11.3 329 15.2 101660 82
2009-06-18 04:57:33 51°20.384 2°36.413 12.9 329 15.2 101660 82
2009-06-18 04:57:38 51°20.393 2°36.393 11.2 327 15.2 101670 83
2009-06-18 04:57:43 51°20.403 2°36.373 12.1 328 15.2 101670 83
2009-06-18 04:57:48 51°20.412 2°36.353 12.7 326 15.2 101670 82
2009-06-18 04:57:53 51°20.421 2°36.332 10.9 304 15.2 101670 82
2009-06-18 04:57:58 51°20.43 2°36.311 10 329 15.2 101660 82
2009-06-18 04:58:03 51°20.44 2°36.29 11.7 327 15.2 101660 82
2009-06-18 04:58:08 51°20.449 2°36.27 10.4 329 15.2 101660 82
2009-06-18 04:58:13 51°20.458 2°36.249 10.7 328 15.2 101660 82
2009-06-18 04:58:18 51°20.467 2°36.228 11.3 331 15.2 101670 83
2009-06-18 04:58:23 51°20.476 2°36.208 12.7 327 15.2 101670 83
2009-06-18 04:58:28 51°20.485 2°36.188 12.3 330 15.2 101670 83
2009-06-18 04:58:33 51°20.495 2°36.167 12.9 278 15.2 101670 83
2009-06-18 04:58:38 51°20.504 2°36.147 11.6 327 15.2 101670 82